Dempster, South Dakota
Current Conditions -  °F | °C
As of 5:53 PM on Monday 24 Nov 2014 (Local Time) from KATY Reporting Station
Clear Clear  
Wind Chill:   Ceiling: Unl
Heat Index: 18°   Visibility: 10mi
Dew Point: 10°   Wind: 17mph
Humidity: 71%   Direction: 320°NW
Pressure: 29.9"   Gusts: NA
Location:  44.6241°N, 96.9581°W
Report Text: KATY 242353Z AUTO 32015KT 10SM CLR M08/M12 A2990 RMK AO2 SLP155 60000 T10781122 11061 21100 51042
Loading
Personal Weather Stations






























Interactive Weather Map New forecast layout! Learn more

10-Day Weather Forecast

Advertisements
Track Severe Weather on mobile